createdAt,value
2023-04-18T00:00:00.695Z,7.1
2023-04-18T00:05:01.472Z,6.8
2023-04-18T00:10:01.269Z,6.7
2023-04-18T00:15:00.607Z,6.6
2023-04-18T00:20:00.618Z,6.6
2023-04-18T00:25:00.620Z,6.5
2023-04-18T00:30:00.789Z,6.4
2023-04-18T00:35:00.809Z,6.3
2023-04-18T00:40:00.654Z,6.2
2023-04-18T00:45:00.684Z,6.1
2023-04-18T00:50:00.697Z,6.1
2023-04-18T00:55:00.732Z,6.0
2023-04-18T01:00:00.716Z,6.0
2023-04-18T01:05:00.694Z,6.1
2023-04-18T01:10:00.672Z,5.9
2023-04-18T01:15:00.709Z,6.0
2023-04-18T01:20:01.203Z,6.0
2023-04-18T01:25:00.717Z,5.9
2023-04-18T01:30:00.715Z,5.9
2023-04-18T01:35:00.744Z,5.9
2023-04-18T01:40:00.636Z,5.9
2023-04-18T01:45:00.660Z,6.0
2023-04-18T01:50:00.593Z,5.9
2023-04-18T01:55:00.537Z,5.9
2023-04-18T02:00:00.814Z,5.8
2023-04-18T02:05:00.626Z,5.7
2023-04-18T02:10:00.620Z,5.6
2023-04-18T02:15:00.759Z,5.5
2023-04-18T02:20:00.637Z,5.5
2023-04-18T02:25:00.517Z,5.4
2023-04-18T02:30:00.640Z,5.3
2023-04-18T02:35:00.676Z,5.2
2023-04-18T02:40:00.701Z,5.1
2023-04-18T02:45:00.651Z,5.0
2023-04-18T02:50:00.709Z,4.9
2023-04-18T02:55:00.633Z,4.8
2023-04-18T03:00:00.698Z,4.7
2023-04-18T03:05:00.835Z,4.7
2023-04-18T03:10:01.004Z,4.7
2023-04-18T03:15:00.606Z,4.8
2023-04-18T03:20:01.290Z,4.8
2023-04-18T03:25:00.716Z,4.9
2023-04-18T03:30:00.690Z,5.0
2023-04-18T03:35:00.720Z,5.1
2023-04-18T03:40:00.712Z,5.2
2023-04-18T03:45:01.005Z,5.3
2023-04-18T03:50:00.707Z,5.4
2023-04-18T03:55:00.559Z,5.5
2023-04-18T04:00:00.718Z,5.5
2023-04-18T04:05:00.663Z,5.5
2023-04-18T04:10:01.454Z,5.5
2023-04-18T04:15:00.685Z,5.5
2023-04-18T04:20:00.545Z,5.5
2023-04-18T04:25:00.529Z,5.5
2023-04-18T04:30:00.563Z,5.6
2023-04-18T04:35:00.510Z,5.6
2023-04-18T04:40:00.565Z,5.6
2023-04-18T04:45:00.604Z,5.7
2023-04-18T04:50:00.700Z,5.7
2023-04-18T04:55:00.701Z,5.7
2023-04-18T05:00:00.620Z,5.7
2023-04-18T05:05:00.555Z,5.7
2023-04-18T05:10:00.698Z,5.8
2023-04-18T05:15:00.835Z,5.9
2023-04-18T05:20:00.911Z,5.9
2023-04-18T05:25:00.733Z,6.0
2023-04-18T05:30:00.727Z,6.1
2023-04-18T05:35:00.718Z,6.1
2023-04-18T05:40:01.126Z,6.2
2023-04-18T05:45:00.853Z,6.3
2023-04-18T05:50:00.597Z,6.4
2023-04-18T05:55:00.581Z,6.5
2023-04-18T06:00:00.770Z,6.5
2023-04-18T06:05:00.754Z,6.6
2023-04-18T06:10:00.714Z,6.7
2023-04-18T06:15:00.981Z,6.9
2023-04-18T06:20:00.647Z,7.1
2023-04-18T06:25:00.744Z,7.5
2023-04-18T06:30:00.649Z,8.2
2023-04-18T06:35:00.792Z,7.9
2023-04-18T06:40:00.828Z,7.6
2023-04-18T06:45:00.722Z,7.4
2023-04-18T06:50:00.699Z,7.4
2023-04-18T06:55:00.668Z,7.7
2023-04-18T07:00:00.572Z,8.1
2023-04-18T07:05:00.871Z,8.4
2023-04-18T07:10:00.853Z,8.7
2023-04-18T07:15:00.511Z,9.1
2023-04-18T07:20:00.560Z,9.5
2023-04-18T07:25:00.751Z,9.3
2023-04-18T07:30:00.558Z,9.7
2023-04-18T07:35:00.635Z,9.7
2023-04-18T07:40:00.656Z,9.6
2023-04-18T07:45:00.706Z,10.3
2023-04-18T07:50:00.688Z,10.4
2023-04-18T07:55:01.369Z,9.9
2023-04-18T08:00:01.294Z,9.3
2023-04-18T08:10:00.261Z,9.2
2023-04-18T08:15:00.279Z,9.0
2023-04-18T08:20:00.281Z,9.3
2023-04-18T08:25:05.077Z,9.2
2023-04-18T08:30:00.291Z,9.2
2023-04-18T08:35:00.296Z,9.2
2023-04-18T08:40:00.313Z,9.4
2023-04-18T08:45:00.305Z,9.5
2023-04-18T08:50:00.282Z,9.7
2023-04-18T08:55:00.273Z,10.2
2023-04-18T09:00:00.281Z,9.8
2023-04-18T09:05:00.295Z,9.9
2023-04-18T09:10:00.276Z,9.7
2023-04-18T09:15:00.284Z,9.7
2023-04-18T09:20:00.281Z,9.8
2023-04-18T09:25:00.324Z,10.0
2023-04-18T09:30:00.311Z,10.0
2023-04-18T09:35:01.446Z,10.3
2023-04-18T09:40:00.308Z,10.4
2023-04-18T09:45:00.295Z,10.3
2023-04-18T09:50:00.282Z,10.5
2023-04-18T09:55:00.316Z,10.7
2023-04-18T10:00:00.309Z,10.9
2023-04-18T10:05:01.131Z,11.1
2023-04-18T10:10:00.283Z,11.4
2023-04-18T10:15:00.284Z,11.1
2023-04-18T10:20:00.267Z,11.1
2023-04-18T10:25:00.283Z,11.2
2023-04-18T10:30:00.283Z,11.5
2023-04-18T10:35:00.279Z,11.7
2023-04-18T10:40:00.327Z,11.3
2023-04-18T10:45:00.302Z,11.7
2023-04-18T10:50:00.281Z,11.3
2023-04-18T10:55:00.283Z,11.2
2023-04-18T11:00:00.258Z,11.6
2023-04-18T11:05:00.273Z,11.9
2023-04-18T11:10:00.277Z,12.1
2023-04-18T11:15:00.280Z,12.1
2023-04-18T11:20:00.293Z,13.3
2023-04-18T11:25:00.283Z,13.9
2023-04-18T11:30:00.285Z,13.0
2023-04-18T11:35:00.296Z,13.6
2023-04-18T11:40:00.284Z,13.9
2023-04-18T11:45:00.298Z,12.9
2023-04-18T11:50:00.297Z,12.4
2023-04-18T11:55:00.301Z,12.3
2023-04-18T12:00:00.309Z,12.4
2023-04-18T12:05:00.629Z,12.6
2023-04-18T12:10:00.288Z,12.2
2023-04-18T12:15:00.304Z,12.2
2023-04-18T12:20:00.284Z,12.4
2023-04-18T12:25:00.280Z,12.5
2023-04-18T12:30:00.291Z,12.3
2023-04-18T12:35:00.434Z,12.7
2023-04-18T12:40:00.275Z,12.7
2023-04-18T12:45:00.354Z,13.3
2023-04-18T12:50:00.308Z,14.1
2023-04-18T12:55:00.334Z,14.5
2023-04-18T13:00:00.294Z,13.9
2023-04-18T13:05:00.329Z,13.6
2023-04-18T13:10:00.299Z,13.2
2023-04-18T13:15:00.277Z,13.5
2023-04-18T13:20:00.280Z,13.8
2023-04-18T13:25:00.286Z,13.6
2023-04-18T13:30:00.290Z,13.3
2023-04-18T13:35:00.286Z,13.4
2023-04-18T13:40:00.279Z,13.2
2023-04-18T13:45:00.302Z,13.2
2023-04-18T13:50:00.327Z,13.2
2023-04-18T13:55:00.286Z,13.7
2023-04-18T14:00:00.280Z,13.1
2023-04-18T14:05:00.675Z,13.4
2023-04-18T14:10:00.274Z,13.9
2023-04-18T14:15:00.290Z,14.3
2023-04-18T14:20:00.318Z,14.3
2023-04-18T14:25:00.278Z,14.1
2023-04-18T14:30:00.279Z,13.8
2023-04-18T14:35:00.285Z,13.8
2023-04-18T14:40:00.282Z,14.5
2023-04-18T14:45:00.299Z,14.9
2023-04-18T14:50:00.342Z,15.2
2023-04-18T14:55:00.296Z,14.3
2023-04-18T15:00:00.303Z,14.3
2023-04-18T15:05:00.370Z,15.4
2023-04-18T15:10:00.288Z,15.0
2023-04-18T15:15:00.284Z,15.3
2023-04-18T15:20:00.294Z,15.4
2023-04-18T15:25:00.282Z,15.0
2023-04-18T15:30:00.283Z,14.6
2023-04-18T15:35:00.311Z,14.6
2023-04-18T15:40:00.295Z,14.3
2023-04-18T15:45:00.301Z,14.4
2023-04-18T15:50:00.306Z,14.5
2023-04-18T15:55:00.342Z,14.5
2023-04-18T16:00:00.318Z,14.9
2023-04-18T16:05:00.304Z,14.7
2023-04-18T16:10:00.277Z,14.7
2023-04-18T16:15:00.289Z,14.8
2023-04-18T16:20:00.285Z,14.4
2023-04-18T16:25:00.343Z,14.1
2023-04-18T16:30:00.292Z,14.4
2023-04-18T16:35:00.287Z,14.8
2023-04-18T16:40:00.364Z,14.6
2023-04-18T16:45:00.298Z,14.7
2023-04-18T16:50:00.554Z,14.4
2023-04-18T16:55:00.307Z,14.7
2023-04-18T17:00:00.289Z,15.1
2023-04-18T17:05:00.383Z,14.7
2023-04-18T17:10:00.294Z,14.1
2023-04-18T17:15:00.321Z,14.2
2023-04-18T17:20:00.279Z,14.3
2023-04-18T17:25:00.291Z,14.3
2023-04-18T17:30:00.258Z,14.0
2023-04-18T17:35:00.271Z,13.7
2023-04-18T17:40:00.283Z,13.5
2023-04-18T17:45:00.311Z,13.3
2023-04-18T17:50:00.278Z,13.2
2023-04-18T17:55:00.278Z,13.1
2023-04-18T18:00:00.283Z,12.9
2023-04-18T18:05:00.292Z,12.9
2023-04-18T18:10:00.280Z,12.9
2023-04-18T18:15:00.295Z,12.7
2023-04-18T18:20:00.289Z,12.6
2023-04-18T18:25:00.283Z,12.4
2023-04-18T18:30:00.329Z,12.3
2023-04-18T18:35:00.295Z,12.2
2023-04-18T18:40:00.284Z,12.0
2023-04-18T18:45:00.310Z,11.8
2023-04-18T18:50:00.306Z,11.5
2023-04-18T18:55:00.291Z,11.4
2023-04-18T19:00:00.282Z,11.3
2023-04-18T19:05:00.575Z,11.2
2023-04-18T19:10:00.282Z,11.1
2023-04-18T19:15:00.293Z,11.1
2023-04-18T19:20:00.301Z,10.8
2023-04-18T19:25:00.285Z,10.8
2023-04-18T19:30:00.269Z,10.6
2023-04-18T19:35:00.293Z,10.5
2023-04-18T19:40:00.284Z,10.4
2023-04-18T19:45:00.315Z,10.4
2023-04-18T19:50:00.274Z,10.3
2023-04-18T19:55:00.300Z,10.2
2023-04-18T20:00:00.272Z,10.1
2023-04-18T20:05:00.505Z,10.1
2023-04-18T20:10:00.281Z,9.8
2023-04-18T20:15:00.289Z,9.9
2023-04-18T20:20:00.281Z,9.8
2023-04-18T20:25:00.273Z,9.7
2023-04-18T20:30:00.282Z,9.6
2023-04-18T20:35:00.289Z,9.5
2023-04-18T20:40:00.286Z,9.4
2023-04-18T20:45:00.277Z,9.4
2023-04-18T20:50:00.276Z,9.3
2023-04-18T21:25:00.254Z,8.6
2023-04-18T21:30:00.924Z,8.6
2023-04-18T21:35:00.236Z,8.5
2023-04-18T21:40:00.239Z,8.4
2023-04-18T21:45:00.244Z,8.4
2023-04-18T21:50:00.224Z,8.4
2023-04-18T21:55:00.234Z,8.2
2023-04-18T22:00:00.244Z,8.1
2023-04-18T22:05:00.241Z,8.0
2023-04-18T22:10:00.281Z,7.9
2023-04-18T22:15:00.243Z,7.8
2023-04-18T22:20:00.251Z,7.8
2023-04-18T22:25:00.242Z,7.7
2023-04-18T22:30:00.226Z,7.6
2023-04-18T22:35:00.255Z,7.7
2023-04-18T22:40:00.228Z,7.8
2023-04-18T22:45:00.246Z,7.6
2023-04-18T22:50:00.232Z,7.5
2023-04-18T22:55:00.228Z,7.5
2023-04-18T23:00:00.235Z,7.5
2023-04-18T23:05:00.226Z,7.5
2023-04-18T23:10:00.361Z,7.5
2023-04-18T23:15:00.245Z,7.5
2023-04-18T23:20:00.235Z,7.4
2023-04-18T23:25:00.239Z,7.4
2023-04-18T23:30:00.235Z,7.3
2023-04-18T23:35:00.264Z,7.2
2023-04-18T23:40:00.281Z,7.3
2023-04-18T23:45:00.236Z,7.3
2023-04-18T23:50:00.263Z,7.2
2023-04-18T23:55:00.242Z,7.2
